Home > Products > Valid Products > TAF

000
FTUS41 KBTV 170500
TAFMSS
TAF
KMSS 170535Z 1706/1806 VRB03KT P6SM SKC
     FM171400 23005KT P6SM BKN060=



000
FTUS41 KBTV 170500
TAFSLK
TAF
KSLK 170535Z 1706/1806 00000KT 1/4SM FG VV001
     FM171200 00000KT P6SM FEW250
     FM171600 23005KT P6SM BKN080=



000
FTUS41 KBTV 170500
TAFBTV
TAF
KBTV 170535Z 1706/1806 VRB04KT P6SM FEW250
     FM172300 18004KT P6SM BKN060=



000
FTUS41 KBTV 170500
TAFMPV
TAF
KMPV 170535Z 1706/1806 VRB04KT P6SM FEW050
     FM170700 00000KT 1/4SM FG VV001
     FM171300 VRB04KT P6SM FEW250
     FM180200 VRB02KT P6SM BKN050=



000
FTUS41 KBTV 162300
TAFSLK
TAF
KSLK 162320Z 1700/1724 VRB03KT P6SM SCT050
      TEMPO 1705/1707 2SM BR SCT001
     FM170700 VRB02KT 1/2SM FG OVC001
     FM171300 23005KT P6SM SKC=



000
FTUS41 KBTV 162300
TAFMSS
TAF
KMSS 162320Z 1700/1724 24005KT P6SM SKC
     FM171800 24008KT P6SM SCT070 BKN150=



000
FTUS41 KBTV 162300
TAFBTV
TAF
KBTV 162320Z 1700/1724 VRB02KT P6SM SCT060
     FM170400 21004KT P6SM SKC
     FM171500 20005KT P6SM SKC=



000
FTUS41 KBTV 162300
TAFMPV
TAF
KMPV 162320Z 1700/1724 00000KT P6SM SCT060
      TEMPO 1705/1706 3/4SM BR BKN001
     FM170600 00000KT 1/4SM FG VV001
     FM171400 VRB04KT P6SM SKC=



000
FTUS41 KBTV 161700
TAFBTV
TAF
KBTV 161720Z 1618/1718 23006KT P6SM SCT015 OVC025
      TEMPO 1618/1620 SCT025
     FM162000 24006KT P6SM SCT035
     FM170000 VRB04KT P6SM FEW250=



000
FTUS41 KBTV 161700
TAFMSS
TAF
KMSS 161720Z 1618/1718 27006KT P6SM SCT035
     FM170100 23005KT P6SM SCT250
     FM171500 23006KT P6SM SCT060=



000
FTUS41 KBTV 161700
TAFSLK
TAF
KSLK 161720Z 1618/1718 25006KT P6SM SCT020 SCT035 BKN050
      TEMPO 1618/1620 BKN025
     FM162200 27007KT P6SM SCT050
     FM170500 00000KT 1/4SM FG OVC002
     FM171300 24005KT P6SM SCT250=



000
FTUS41 KBTV 161700
TAFMPV
TAF
KMPV 161720Z 1618/1718 VRB04KT P6SM SCT015 BKN025 OVC035
      TEMPO 1618/1620 BKN015
     FM162000 23005KT P6SM SCT025 BKN035
     FM170200 00000KT P6SM FEW250
     FM170500 00000KT 1/4SM FG VV001
     FM171300 VRB03KT P6SM SCT250=



000
FTUS41 KBTV 161500 AAA
TAFBTV
TAF AMD
KBTV 161540Z 1616/1712 19006KT P6SM SCT010 BKN035 OVC050
      TEMPO 1616/1618 BKN010
     FM161800 25004KT P6SM BKN040
     FM162200 28006KT P6SM SCT045
     FM170000 VRB04KT P6SM FEW250=



000
FTUS41 KBTV 161400 AAB
TAFSLK
TAF AMD
KSLK 161431Z 1615/1712 24003KT 1 1/2SM BR BKN007 OVC012
      TEMPO 1616/1618 4SM BR SCT007 OVC025
     FM161800 25006KT P6SM OVC050
     FM162200 27007KT P6SM SCT050
     FM170500 00000KT 1/4SM FG BKN001=



000
FTUS41 KBTV 161400 AAA
TAFMPV
TAF AMD
KMPV 161409Z 1614/1712 VRB04KT P6SM SCT009 OVC050
      TEMPO 1614/1617 BKN009 OVC050
     FM170200 00000KT P6SM FEW250
     FM170500 00000KT 1/4SM FG VV001=



000
FTUS41 KBTV 161300 AAA
TAFBTV
TAF AMD
KBTV 161319Z 1613/1712 19006KT P6SM BKN050
     FM161600 25004KT P6SM BKN040
     FM162200 28006KT P6SM SCT045
     FM170000 VRB04KT P6SM FEW250=



000
FTUS41 KBTV 161300 AAA
TAFSLK
TAF AMD
KSLK 161317Z 1613/1712 24003KT P6SM SCT007 BKN016 OVC025
      TEMPO 1613/1616 BKN007
     FM161600 25006KT P6SM OVC050
     FM162200 27007KT P6SM SCT050
     FM170500 00000KT 1/4SM FG BKN001=



000
FTUS41 KBTV 161300 AAA
TAFMSS
TAF AMD
KMSS 161315Z 1613/1712 25006KT P6SM SCT007 BKN015
      TEMPO 1613/1616 BKN007
     FM162100 27006KT P6SM FEW050
     FM170600 23005KT P6SM SCT250=



000
FTUS41 KBTV 161100
TAFMPV
TAF
KMPV 161130Z 1612/1712 VRB04KT P6SM -SHRA OVC050
      TEMPO 1612/1616 BKN025 OVC060
     FM161600 VRB04KT P6SM OVC050
     FM170200 00000KT P6SM FEW250
     FM170500 00000KT 1/4SM FG VV001=



000
FTUS41 KBTV 161100
TAFMSS
TAF
KMSS 161130Z 1612/1712 23006KT P6SM BKN060
     FM162100 27006KT P6SM FEW050
     FM170600 23005KT P6SM SCT250=



000
FTUS41 KBTV 161100
TAFBTV
TAF
KBTV 161130Z 1612/1712 19006KT P6SM -SHRA BKN040 OVC070
      TEMPO 1612/1616 BKN025 OVC040
     FM161600 25004KT P6SM BKN040
     FM162200 28006KT P6SM SCT045
     FM170000 VRB04KT P6SM FEW250=



000
FTUS41 KBTV 161100
TAFSLK
TAF
KSLK 161130Z 1612/1712 24003KT P6SM -SHRA BKN035 OVC060
      TEMPO 1612/1616 BKN030 OVC060
     FM161600 25006KT P6SM OVC050
     FM162200 27007KT P6SM SCT050
     FM170500 00000KT 1/4SM FG BKN001=



000
FTUS41 KBTV 160500
TAFMPV
TAF
KMPV 160523Z 1606/1706 00000KT P6SM -SHRA OVC070
      TEMPO 1610/1613 5SM -RA BR BKN030 OVC060
     FM161300 VRB03KT P6SM OVC025
     FM161600 VRB03KT P6SM OVC035
     FM170000 VRB03KT P6SM FEW250=



000
FTUS41 KBTV 160500
TAFMSS
TAF
KMSS 160523Z 1606/1706 VRB03KT P6SM -SHRA OVC070
     FM161000 25004KT P6SM OVC030
     FM161200 26006KT P6SM BKN025
     FM161500 27006KT P6SM BKN050
     FM170100 23005KT P6SM SCT250=



000
FTUS41 KBTV 160500
TAFBTV
TAF
KBTV 160523Z 1606/1706 19006KT P6SM -SHRA BKN070 OVC100
     FM161300 19005KT P6SM OVC030
     FM161600 25004KT P6SM BKN035
     FM162200 28006KT P6SM SCT045
     FM170000 25004KT P6SM FEW250=



000
FTUS41 KBTV 160500
TAFSLK
TAF
KSLK 160523Z 1606/1706 00000KT P6SM -SHRA OVC050
      TEMPO 1608/1611 5SM -RA BR BKN030 OVC050
     FM161100 VRB03KT P6SM OVC030
     FM161600 28006KT P6SM BKN040
     FM162100 27007KT P6SM SCT050
     FM170100 00000KT P6SM SCT250=



000
FTUS41 KBTV 160300 AAA
TAFBTV
TAF AMD
KBTV 160305Z 1603/1624 18005KT P6SM VCSH BKN070 OVC150
     FM160600 18005KT P6SM -SHRA OVC070
     FM161200 24007KT P6SM -SHRA BKN025
     FM161500 26007KT P6SM BKN025
     FM161800 29007KT P6SM SCT050=



000
FTUS41 KBTV 160300 AAA
TAFMPV
TAF AMD
KMPV 160305Z 1603/1624 18003KT P6SM VCSH BKN060 OVC120
     FM160700 VRB02KT P6SM -SHRA OVC035
      TEMPO 1609/1612 4SM -RA BR
     FM161400 29005KT P6SM BKN025
     FM161900 29006KT P6SM SCT040=



000
FTUS41 KBTV 152300
TAFMSS
TAF
KMSS 152321Z 1600/1624 22004KT P6SM -SHRA BKN050 OVC100
     FM160600 23003KT P6SM -SHRA BKN025 OVC060
     FM160900 24004KT P6SM BKN025 OVC060
     FM161200 25005KT P6SM BKN025
     FM161500 25008KT P6SM SCT045=



000
FTUS41 KBTV 152300
TAFMPV
TAF
KMPV 152321Z 1600/1624 18003KT P6SM BKN060 OVC120
     FM160700 VRB02KT P6SM -SHRA OVC035
      TEMPO 1609/1612 4SM -RA BR
     FM161400 29005KT P6SM BKN025
     FM161900 29006KT P6SM SCT040=



000
FTUS41 KBTV 152300
TAFSLK
TAF
KSLK 152321Z 1600/1624 VRB02KT P6SM BKN040 OVC120
     FM160300 VRB02KT P6SM -SHRA BKN040 OVC120
      TEMPO 1606/1608 5SM -RA BR OVC035
     FM160800 VRB02KT 6SM -SHRA BR BKN020
      TEMPO 1608/1612 3SM -RA BR
     FM161200 25003KT P6SM BKN020
     FM161800 26007KT P6SM SCT035=



000
FTUS41 KBTV 152300
TAFBTV
TAF
KBTV 152321Z 1600/1624 18005KT P6SM BKN070 OVC150
     FM160600 18005KT P6SM -SHRA OVC070
     FM161200 24007KT P6SM -SHRA BKN025
     FM161500 26007KT P6SM BKN025
     FM161800 29007KT P6SM SCT050=



000
FTUS41 KBTV 151700
TAFMSS
TAF
KMSS 151720Z 1518/1618 22010KT P6SM SCT030 BKN070
     FM160300 22004KT 6SM -SHRA OVC030
     FM160800 VRB03KT 6SM -SHRA OVC015
     FM161200 25004KT P6SM OVC025
     FM161600 27008KT P6SM BKN045=



000
FTUS41 KBTV 151700
TAFBTV
TAF
KBTV 151720Z 1518/1618 25005KT P6SM SCT040 BKN090
     FM160400 19005KT P6SM -SHRA OVC060
     FM161000 18006KT 6SM -SHRA OVC030
     FM161300 25006KT P6SM OVC020
     FM161700 30008KT P6SM BKN035=



000
FTUS41 KBTV 151700
TAFSLK
TAF
KSLK 151720Z 1518/1618 25005KT P6SM BKN045
     FM160400 VRB03KT 3SM -SHRA BR SCT010 OVC040
     FM160800 VRB03KT 2SM -SHRA BR OVC015
     FM161300 27005KT P6SM OVC010
     FM161700 28007KT P6SM BKN035=



000
FTUS41 KBTV 151700
TAFMPV
TAF
KMPV 151720Z 1518/1618 31004KT P6SM SCT045 BKN080
     FM160500 VRB03KT 2SM -SHRA BR BKN010 OVC050
     FM161300 VRB03KT 3SM BR OVC015
     FM161600 29006KT P6SM OVC040=



000
FTUS41 KBTV 151300 AAA
TAFMPV
TAF AMD
KMPV 151331Z 1514/1612 VRB03KT 1/2SM FG VV001
     FM151430 29005KT P6SM SCT035 BKN100
     FM160600 VRB03KT 6SM -SHRA BR SCT015 OVC040
     FM161000 VRB03KT 3SM -SHRA BR OVC015=



000
FTUS41 KBTV 151100
TAFSLK
TAF
KSLK 151121Z 1512/1612 18004KT 1/4SM FG VV002
     FM151300 23006KT P6SM SCT030 BKN050
     FM160200 22003KT P6SM VCSH SCT015 OVC050
     FM160500 23003KT 3SM -SHRA BR OVC015=



000
FTUS41 KBTV 151100
TAFMSS
TAF
KMSS 151121Z 1512/1612 VRB03KT P6SM BKN060
     FM151400 23007KT P6SM SCT040 BKN060
     FM160200 21004KT P6SM VCSH SCT025 OVC050
     FM160500 23004KT 6SM -SHRA BR OVC025=



000
FTUS41 KBTV 151100
TAFMPV
TAF
KMPV 151121Z 1512/1612 VRB03KT 1/2SM FG VV001
     FM151400 29005KT P6SM SCT035 SCT100
     FM152200 VRB03KT P6SM SCT040 BKN100
     FM160600 VRB03KT 6SM -SHRA BR SCT015 OVC040
     FM161000 VRB03KT 3SM -SHRA BR OVC015=



000
FTUS41 KBTV 151100
TAFBTV
TAF
KBTV 151121Z 1512/1612 VRB03KT P6SM VCFG SKC
     FM151300 20006KT P6SM FEW050 SCT200
     FM151700 20006KT P6SM SCT050 BKN100
     FM160600 18005KT P6SM -SHRA SCT025 OVC040
     FM161000 18005KT 6SM -SHRA BR OVC025=



000
FTUS41 KBTV 150500
TAFMSS
TAF
KMSS 150524Z 1506/1606 VRB03KT P6SM BKN060
     FM151200 23007KT P6SM SCT040 BKN060
     FM160300 21004KT P6SM VCSH SCT030 OVC050=



000
FTUS41 KBTV 150500
TAFMPV
TAF
KMPV 150524Z 1506/1606 00000KT 1/2SM FG VV001
     FM151300 29005KT P6SM SCT035
     FM160000 VRB02KT P6SM SCT040 BKN100=



000
FTUS41 KBTV 150500
TAFSLK
TAF
KSLK 150524Z 1506/1606 00000KT 1/4SM FG VV001
     FM151300 23006KT P6SM SCT030 BKN050
     FM160300 22003KT P6SM VCSH SCT025 OVC050=



000
FTUS41 KBTV 150500
TAFBTV
TAF
KBTV 150524Z 1506/1606 VRB02KT P6SM SCT030
     FM151200 22006KT P6SM SCT050 SCT200
     FM160000 18005KT P6SM SCT050 BKN100=



000
FTUS41 KBTV 150400 AAB
TAFMPV
TAF AMD
KMPV 150423Z 1504/1524 00000KT 2SM BR SCT001
      TEMPO 1504/1506 1/2SM FG BKN001
     FM150600 00000KT 1/2SM FG VV001
     FM151300 29005KT P6SM SCT035=



000
FTUS41 KBTV 150400 AAB
TAFSLK
TAF AMD
KSLK 150422Z 1504/1524 00000KT 2SM BR BKN002
      TEMPO 1504/1505 1/2SM FZFG VV002
     FM150500 00000KT 1/2SM FZFG VV001
     FM151200 23006KT P6SM SCT040 SCT150=



000
FTUS41 KBTV 150200 AAA
TAFSLK
TAF AMD
KSLK 150235Z 1503/1524 00000KT 6SM BR FEW002
      TEMPO 1503/1505 2SM BR BKN002
     FM150500 00000KT 1/2SM FG VV001
     FM151200 23006KT P6SM SCT040 SCT150=



000
FTUS41 KBTV 150200 AAA
TAFMPV
TAF AMD
KMPV 150208Z 1502/1524 00000KT P6SM FEW030
      TEMPO 1502/1504 BKN025
     FM150400 00000KT 4SM BR FEW001
      TEMPO 1504/1507 1SM BR SCT001
     FM150700 00000KT 1/2SM FG VV001
     FM151300 29005KT P6SM SCT035=



000
FTUS41 KBTV 150100 AAA
TAFBTV
TAF AMD
KBTV 150119Z 1501/1524 VRB02KT P6SM SCT030
      TEMPO 1501/1505 BKN025
     FM151200 22006KT P6SM SCT050 SCT200=



000
FTUS41 KBTV 142300
TAFMSS
TAF
KMSS 142322Z 1500/1524 VRB02KT P6SM SCT040
     FM151200 23007KT P6SM SCT040
     FM151800 23007KT P6SM SCT040 BKN150=



000
FTUS41 KBTV 142300
TAFBTV
TAF
KBTV 142322Z 1500/1524 VRB02KT P6SM SCT030
     FM151200 22006KT P6SM SCT050 SCT200=



000
FTUS41 KBTV 142300
TAFMPV
TAF
KMPV 142322Z 1500/1524 00000KT P6SM FEW030
     FM150400 00000KT 4SM BR FEW001
      TEMPO 1504/1507 1SM BR SCT001
     FM150700 00000KT 1/2SM FG VV001
     FM151300 29005KT P6SM SCT035=



000
FTUS41 KBTV 142300
TAFSLK
TAF
KSLK 142322Z 1500/1524 00000KT P6SM FEW030
     FM150200 00000KT 6SM BR FEW001
      TEMPO 1502/1505 2SM BR SCT001
     FM150500 00000KT 1/2SM FG VV001
     FM151200 23006KT P6SM SCT040 SCT150=



000
FTUS41 KBTV 141700
TAFSLK
TAF
KSLK 141720Z 1418/1518 27005KT P6SM BKN020
     FM141900 26005KT P6SM SCT020
      TEMPO 1419/1421 BKN020
     FM142300 00000KT P6SM SKC
     FM150600 00000KT 1/2SM FZFG BKN002
     FM151300 VRB03KT P6SM SCT020 BKN120=



000
FTUS41 KBTV 141700
TAFBTV
TAF
KBTV 141720Z 1418/1518 36006KT P6SM SCT030
      TEMPO 1418/1420 BKN030
     FM142300 VRB03KT P6SM SCT030
     FM151400 19004KT P6SM SCT030 SCT120=



000
FTUS41 KBTV 141700
TAFMSS
TAF
KMSS 141720Z 1418/1518 30005KT P6SM OVC025
     FM142000 28005KT P6SM SCT025
      TEMPO 1420/1421 BKN025
     FM151300 21005KT P6SM SCT030 BKN120=



000
FTUS41 KBTV 141700
TAFMPV
TAF
KMPV 141720Z 1418/1518 33006KT P6SM SCT025
      TEMPO 1418/1420 BKN025
     FM142300 VRB03KT P6SM SKC
     FM150600 00000KT 1/2SM FG VV001
     FM151400 VRB03KT P6SM SCT020 SCT120=



000
FTUS41 KBTV 141100
TAFMSS
TAF
KMSS 141126Z 1412/1512 31007KT P6SM OVC018
     FM141800 27007KT P6SM SCT025 BKN035
     FM142300 VRB03KT P6SM SKC=



000
FTUS41 KBTV 141100
TAFMPV
TAF
KMPV 141126Z 1412/1512 32010G16KT P6SM BKN015 OVC025
     FM141800 33007KT P6SM SCT025 BKN035
     FM142300 VRB03KT P6SM SKC
     FM150600 00000KT 1/2SM FG VV001=



000
FTUS41 KBTV 141100
TAFSLK
TAF
KSLK 141126Z 1412/1512 00000KT P6SM SCT008 OVC013
      TEMPO 1412/1414 3SM BR BKN008
     FM141400 27005KT P6SM SCT008 OVC015
     FM141800 26005KT P6SM SCT020 BKN035
     FM142300 00000KT P6SM SKC
     FM150600 00000KT 1/2SM FZFG BKN002=



000
FTUS41 KBTV 141100
TAFBTV
TAF
KBTV 141126Z 1412/1512 33010KT P6SM OVC025
     FM141800 35006KT P6SM SCT025 BKN035
     FM142300 VRB03KT P6SM SKC=



000
FTUS41 KBTV 141000 AAA
TAFMSS
TAF AMD
KMSS 141031Z 1411/1506 30009KT P6SM SCT015 OVC025
      TEMPO 1411/1412 BKN015
     FM141200 27007KT P6SM OVC015
     FM141800 26007KT P6SM SCT035
     FM142300 VRB03KT P6SM SKC=



000
FTUS41 KBTV 141000 AAB
TAFSLK
TAF AMD
KSLK 141030Z 1411/1506 VRB03KT P6SM OVC015
      TEMPO 1411/1412 BKN008
     FM141200 27005KT P6SM OVC008
     FM141500 26004KT P6SM BKN015
     FM141800 26005KT P6SM SCT020 BKN035
     FM142300 00000KT P6SM SKC=



000
FTUS41 KBTV 140800 AAA
TAFSLK
TAF AMD
KSLK 140847Z 1409/1506 28007KT P6SM OVC010
      TEMPO 1409/1410 BKN008
     FM141000 27005KT P6SM OVC008
     FM141500 26004KT P6SM BKN015
     FM141800 26005KT P6SM SCT020 BKN035
     FM142300 00000KT P6SM SKC=



000
FTUS41 KBTV 140800 AAB
TAFMPV
TAF AMD
KMPV 140846Z 1409/1506 31010G18KT P6SM BKN015 OVC025
     FM141000 31010KT P6SM OVC015
     FM141800 33005KT P6SM SCT025 BKN035
     FM142300 VRB03KT P6SM SKC=



    US Dept of Commerce
    National Oceanic and Atmospheric Administration
    National Weather Service
    1325 East West Highway
    Silver Spring, MD 20910
    Page Author: NWS Internet Services Team
Disclaimer
Information Quality
Credits
Glossary
Privacy Policy
Freedom of Information Act (FOIA)
About Us
Career Opportunities